Time;durP1;ratioP1;P1;durP2;ratioP2;P2;SDS_P1;SDS_P2;PMS_P1;PMS_P2;Temp;Humidity;BMP_temperature;BMP_pressure;BME280_temperature;BME280_humidity;BME280_pressure;Samples;Min_cycle;Max_cycle;Signal;HPM_P1;HPM_P2
2024/04/01 00:00:31;;;;;;;17.80;7.00;;;;;;;19.30;54.35;99681.56;5093578;28;20024;-38
2024/04/01 00:02:56;;;;;;;17.20;7.15;;;;;;;19.34;54.08;99677.31;5093152;28;20059;-38
2024/04/01 00:05:22;;;;;;;17.02;6.97;;;;;;;19.30;54.19;99675.38;5092949;28;20052;-39
2024/04/01 00:07:51;;;;;;;16.60;7.25;;;;;;;19.26;54.33;99674.28;5093070;28;20415;-37
2024/04/01 00:10:19;;;;;;;14.75;7.43;;;;;;;19.20;55.27;99664.56;5093293;28;20023;-39
2024/04/01 00:12:45;;;;;;;16.02;7.00;;;;;;;19.11;55.15;99667.75;5093365;28;20036;-39
2024/04/01 00:15:10;;;;;;;21.08;8.68;;;;;;;19.08;54.74;99670.16;5093277;28;20430;-39
2024/04/01 00:17:36;;;;;;;21.08;7.95;;;;;;;19.04;55.24;99677.97;5093108;28;20464;-37
2024/04/01 00:20:02;;;;;;;19.58;7.20;;;;;;;19.00;55.98;99686.81;5093226;28;20059;-38
2024/04/01 00:22:28;;;;;;;16.83;7.45;;;;;;;18.97;56.46;99677.38;5093241;28;20126;-39
2024/04/01 00:24:53;;;;;;;17.33;7.10;;;;;;;19.01;56.07;99673.06;5092819;28;20046;-39
2024/04/01 00:27:19;;;;;;;21.40;8.30;;;;;;;19.00;55.71;99671.47;5092854;28;20012;-39
2024/04/01 00:29:44;;;;;;;18.92;7.97;;;;;;;19.05;55.69;99679.56;5092887;28;20492;-39
2024/04/01 00:32:09;;;;;;;21.95;8.15;;;;;;;19.00;55.76;99679.56;5092903;28;20040;-39
2024/04/01 00:34:35;;;;;;;21.13;8.13;;;;;;;19.06;54.83;99688.50;5092909;28;20169;-36
2024/04/01 00:37:00;;;;;;;20.30;8.00;;;;;;;18.85;55.07;99691.06;5092474;28;20369;-39
2024/04/01 00:39:26;;;;;;;18.65;7.75;;;;;;;18.81;55.01;99691.81;5093030;28;20052;-39
2024/04/01 00:41:51;;;;;;;23.65;7.85;;;;;;;18.66;55.72;99687.91;5093136;28;20028;-36
2024/04/01 00:44:16;;;;;;;18.60;7.22;;;;;;;18.71;55.57;99693.31;5092662;28;20030;-36
2024/04/01 00:46:42;;;;;;;15.68;6.82;;;;;;;18.61;55.65;99687.88;5092738;28;20027;-36
2024/04/01 00:49:07;;;;;;;19.98;7.50;;;;;;;18.67;55.45;99689.53;5092793;28;20077;-39
2024/04/01 00:51:34;;;;;;;16.73;6.32;;;;;;;18.64;56.06;99689.22;5092811;28;20107;-39
2024/04/01 00:54:01;;;;;;;16.15;6.20;;;;;;;18.61;55.96;99687.88;5092531;28;20028;-37
2024/04/01 00:56:27;;;;;;;15.82;6.10;;;;;;;18.68;55.52;99685.78;5092624;28;20056;-39
2024/04/01 00:58:53;;;;;;;17.52;6.15;;;;;;;18.60;55.54;99680.88;5092461;28;20028;-37
2024/04/01 01:01:20;;;;;;;18.63;6.00;;;;;;;18.59;55.63;99684.63;5092314;28;20056;-37
2024/04/01 01:03:46;;;;;;;12.25;5.95;;;;;;;18.64;55.78;99692.75;5092855;28;20073;-36
2024/04/01 01:06:15;;;;;;;21.90;7.55;;;;;;;18.47;57.23;99700.16;5092383;28;20036;-39
2024/04/01 01:08:41;;;;;;;;;;;;;;;18.62;56.59;99694.91;5092817;28;20028;-38
2024/04/01 01:11:07;;;;;;;26.60;6.63;;;;;;;18.46;57.06;99695.84;5092214;28;20371;-39
2024/04/01 01:13:32;;;;;;;16.80;6.65;;;;;;;18.32;57.47;99693.56;5092430;28;20028;-39
2024/04/01 01:15:58;;;;;;;16.95;6.32;;;;;;;18.20;57.31;99692.09;5091963;28;20371;-38
2024/04/01 01:18:24;;;;;;;15.55;6.43;;;;;;;18.30;57.57;99687.63;5092138;28;20519;-39
2024/04/01 01:20:49;;;;;;;15.80;6.78;;;;;;;18.30;57.63;99697.59;5091837;28;20165;-39
2024/04/01 01:23:15;;;;;;;17.30;6.28;;;;;;;18.23;57.79;99686.22;5091842;28;20111;-39
2024/04/01 01:25:40;;;;;;;21.08;6.20;;;;;;;18.23;56.94;99692.41;5091506;28;20024;-37
2024/04/01 01:28:06;;;;;;;18.15;6.13;;;;;;;18.25;56.80;99689.44;5091717;28;20028;-39
2024/04/01 01:30:31;;;;;;;21.38;6.47;;;;;;;18.17;57.56;99698.81;5091935;28;20024;-40
2024/04/01 01:32:58;;;;;;;17.85;6.25;;;;;;;18.12;57.80;99693.38;5091927;28;20114;-40
2024/04/01 01:35:26;;;;;;;19.75;6.13;;;;;;;18.13;57.79;99701.19;5091074;28;20465;-37
2024/04/01 01:37:53;;;;;;;16.75;5.82;;;;;;;18.28;57.13;99705.13;5091636;28;20059;-39
2024/04/01 01:40:19;;;;;;;21.05;6.47;;;;;;;18.25;57.49;99703.72;5092069;28;20081;-36
2024/04/01 01:42:45;;;;;;;13.45;5.80;;;;;;;18.19;57.46;99688.59;5091443;28;20043;-37
2024/04/01 01:45:11;;;;;;;16.50;5.78;;;;;;;18.17;57.21;99679.97;5092254;28;20078;-37
2024/04/01 01:47:37;;;;;;;14.90;5.55;;;;;;;18.15;57.25;99698.25;5091362;28;20047;-37
2024/04/01 01:50:05;;;;;;;15.68;5.55;;;;;;;18.19;57.07;99696.66;5091628;28;20488;-39
2024/04/01 01:52:31;;;;;;;20.73;6.10;;;;;;;18.15;57.10;99692.88;5091922;28;20129;-40
2024/04/01 01:54:57;;;;;;;20.48;6.32;;;;;;;18.00;58.10;99696.22;5091353;28;20020;-38
2024/04/01 01:57:23;;;;;;;18.80;6.90;;;;;;;18.09;57.73;99692.00;5091468;28;20326;-37
2024/04/01 01:59:49;;;;;;;19.67;6.18;;;;;;;18.03;58.17;99700.28;5091575;28;20472;-39
2024/04/01 02:02:15;;;;;;;15.15;5.72;;;;;;;18.01;57.57;99705.09;5091139;28;20107;-38
2024/04/01 02:04:41;;;;;;;18.02;6.05;;;;;;;17.95;57.69;99698.84;5091257;28;20027;-37
2024/04/01 02:07:07;;;;;;;14.73;5.47;;;;;;;17.81;57.57;99703.78;5091208;28;20020;-36
2024/04/01 02:09:33;;;;;;;18.27;5.85;;;;;;;17.89;57.61;99703.34;5091026;28;20141;-39
2024/04/01 02:12:00;;;;;;;14.25;5.30;;;;;;;17.86;57.38;99703.03;5091192;28;20031;-37
2024/04/01 02:14:25;;;;;;;16.17;5.80;;;;;;;17.87;57.09;99702.81;5091054;28;20107;-37
2024/04/01 02:16:51;;;;;;;14.38;5.50;;;;;;;17.83;57.17;99709.72;5091248;28;20099;-39
2024/04/01 02:19:17;;;;;;;14.32;5.65;;;;;;;17.88;57.08;99704.44;5091266;28;20482;-38
2024/04/01 02:21:45;;;;;;;19.70;5.78;;;;;;;17.65;58.00;99694.72;5089769;28;20028;-37
2024/04/01 02:24:11;;;;;;;14.83;5.67;;;;;;;17.75;57.76;99702.09;5091150;28;20103;-36
2024/04/01 02:26:37;;;;;;;16.42;5.60;;;;;;;17.86;57.45;99701.19;5091033;28;20035;-40
2024/04/01 02:29:02;;;;;;;16.33;5.53;;;;;;;17.88;57.11;99696.38;5090971;28;20019;-39
2024/04/01 02:31:28;;;;;;;20.85;6.32;;;;;;;17.83;56.92;99695.47;5091074;28;20027;-38
2024/04/01 02:33:53;;;;;;;14.23;5.53;;;;;;;17.80;57.16;99696.78;5090813;28;20081;-36
2024/04/01 02:36:19;;;;;;;18.30;5.72;;;;;;;17.66;57.11;99682.88;5091289;28;20052;-38
2024/04/01 02:38:50;;;;;;;18.25;5.30;;;;;;;17.44;57.30;99682.06;5091289;28;20048;-39
2024/04/01 02:41:16;;;;;;;16.55;5.55;;;;;;;17.42;56.71;99670.75;5091113;28;20032;-39
2024/04/01 02:43:45;;;;;;;16.05;5.65;;;;;;;17.31;56.97;99683.28;5090940;28;20077;-37
2024/04/01 02:46:10;;;;;;;12.05;5.40;;;;;;;17.35;57.43;99687.09;5089819;28;20021;-38
2024/04/01 02:48:35;;;;;;;15.73;5.32;;;;;;;17.44;56.66;99679.38;5091066;28;20096;-37
2024/04/01 02:51:02;;;;;;;16.38;6.22;;;;;;;17.46;56.64;99677.25;5091003;28;20035;-39
2024/04/01 02:53:27;;;;;;;12.38;5.50;;;;;;;17.45;57.17;99676.44;5090698;28;20444;-38
2024/04/01 02:55:54;;;;;;;17.20;5.82;;;;;;;17.41;57.17;99688.78;5090902;28;20035;-39
2024/04/01 02:58:20;;;;;;;15.13;5.93;;;;;;;17.44;57.11;99676.69;5091084;28;20138;-37
2024/04/01 03:00:45;;;;;;;13.48;5.75;;;;;;;17.43;56.60;99683.16;5094655;28;20027;-38
2024/04/01 03:03:14;;;;;;;18.67;6.13;;;;;;;17.38;56.65;99686.56;5095031;28;20466;-38
2024/04/01 03:05:40;;;;;;;17.37;6.23;;;;;;;17.12;57.82;99682.75;5094779;28;20016;-38
2024/04/01 03:08:09;;;;;;;17.67;6.35;;;;;;;16.94;58.81;99679.25;5094218;28;20047;-38
2024/04/01 03:10:36;;;;;;;27.20;6.28;;;;;;;16.95;58.71;99674.72;5094199;28;20501;-36
2024/04/01 03:13:05;;;;;;;15.85;5.95;;;;;;;16.95;58.45;99675.53;5094144;28;20016;-39
2024/04/01 03:15:30;;;;;;;;;;;;;;;17.25;57.88;99674.34;5094586;28;20047;-39
2024/04/01 03:17:57;;;;;;;20.85;6.30;;;;;;;17.08;57.71;99670.88;5093914;28;20371;-36
2024/04/01 03:20:22;;;;;;;21.98;6.60;;;;;;;16.81;58.88;99676.88;5093068;28;20023;-38
2024/04/01 03:22:48;;;;;;;17.25;6.07;;;;;;;16.87;58.16;99665.22;5092052;28;20465;-38
2024/04/01 03:25:13;;;;;;;15.00;6.40;;;;;;;16.77;59.23;99673.91;5092358;28;20062;-36
2024/04/01 03:27:39;;;;;;;13.93;5.93;;;;;;;16.83;58.82;99668.63;5092257;28;20024;-39
2024/04/01 03:30:05;;;;;;;16.05;6.53;;;;;;;16.89;58.78;99664.97;5091787;28;20560;-40
2024/04/01 03:32:30;;;;;;;17.88;6.30;;;;;;;16.87;58.78;99667.91;5091788;28;20043;-39
2024/04/01 03:34:56;;;;;;;12.77;6.65;;;;;;;16.77;59.35;99673.91;5092521;28;20024;-38
2024/04/01 03:37:21;;;;;;;21.08;6.88;;;;;;;16.83;60.00;99669.47;5094078;28;20027;-33
2024/04/01 03:39:47;;;;;;;19.67;7.20;;;;;;;16.89;59.64;99684.59;5094315;28;20535;-39
2024/04/01 03:42:13;;;;;;;17.13;6.28;;;;;;;16.91;59.05;99671.72;5094275;28;20023;-39
2024/04/01 03:44:39;;;;;;;18.73;7.25;;;;;;;16.81;59.39;99679.56;5093958;28;20016;-36
2024/04/01 03:47:07;;;;;;;22.20;6.78;;;;;;;16.71;59.66;99679.44;5093975;28;20504;-37
2024/04/01 03:49:32;;;;;;;15.07;6.65;;;;;;;16.75;59.32;99700.22;5093906;28;20089;-38
2024/04/01 03:51:58;;;;;;;24.08;7.30;;;;;;;16.86;59.38;99684.25;5093861;28;20039;-38
2024/04/01 03:54:23;;;;;;;20.75;6.72;;;;;;;17.05;67.61;99696.38;5093814;28;20454;-38
2024/04/01 03:56:49;;;;;;;20.42;7.03;;;;;;;17.09;61.28;99697.50;5093883;28;20031;-38
2024/04/01 03:59:15;;;;;;;16.58;6.40;;;;;;;17.06;60.04;99702.53;5093783;28;20111;-36
2024/04/01 04:01:44;;;;;;;23.02;7.18;;;;;;;17.14;60.38;99704.84;5094241;28;20024;-38
2024/04/01 04:04:10;;;;;;;18.48;6.85;;;;;;;17.57;81.52;99717.50;5093945;28;20035;-40
2024/04/01 04:06:36;;;;;;;20.13;9.68;;;;;;;17.66;75.57;99715.19;5094053;28;20085;-41
2024/04/01 04:09:02;;;;;;;19.30;6.68;;;;;;;17.96;63.06;99722.03;5094250;28;20032;-43
2024/04/01 04:11:27;;;;;;;20.90;6.30;;;;;;;18.00;58.79;99717.75;5093487;28;20126;-40
2024/04/01 04:13:53;;;;;;;18.25;6.38;;;;;;;18.04;56.27;99720.75;5093517;28;20020;-39
2024/04/01 04:16:18;;;;;;;20.08;7.00;;;;;;;17.80;56.69;99726.41;5094243;28;20310;-40
2024/04/01 04:18:44;;;;;;;15.82;6.50;;;;;;;17.70;57.01;99721.69;5093810;28;20476;-40
2024/04/01 04:21:10;;;;;;;20.58;7.15;;;;;;;17.66;56.82;99730.53;5093552;28;20047;-40
2024/04/01 04:23:36;;;;;;;21.42;7.22;;;;;;;17.57;56.96;99735.50;5093762;28;20465;-40
2024/04/01 04:26:01;;;;;;;19.17;6.97;;;;;;;17.40;57.63;99724.78;5093788;28;20077;-40
2024/04/01 04:28:26;;;;;;;24.15;7.22;;;;;;;17.34;57.83;99733.88;5093621;28;20431;-40
2024/04/01 04:30:52;;;;;;;23.83;7.18;;;;;;;17.33;58.07;99727.69;5093811;28;20027;-37
2024/04/01 04:33:17;;;;;;;20.20;6.60;;;;;;;17.14;59.05;99737.09;5093900;28;20539;-39
2024/04/01 04:35:43;;;;;;;20.38;7.10;;;;;;;17.08;58.74;99730.81;5093150;28;20024;-40
2024/04/01 04:38:08;;;;;;;29.38;7.88;;;;;;;17.12;58.45;99726.59;5093501;28;20408;-40
2024/04/01 04:40:34;;;;;;;26.50;7.45;;;;;;;17.15;58.83;99738.72;5093711;28;20411;-39
2024/04/01 04:42:59;;;;;;;20.63;7.35;;;;;;;16.96;58.54;99740.84;5092815;28;20360;-39
2024/04/01 04:45:25;;;;;;;26.92;7.40;;;;;;;17.01;58.57;99735.56;5092581;28;20026;-40
2024/04/01 04:47:52;;;;;;;27.98;8.15;;;;;;;17.11;58.61;99730.31;5092538;28;20028;-38
2024/04/01 04:50:21;;;;;;;29.35;8.20;;;;;;;17.20;57.95;99728.84;5092409;28;20032;-39
2024/04/01 04:52:46;;;;;;;27.67;8.20;;;;;;;17.18;58.75;99725.59;5092546;28;20031;-39
2024/04/01 04:55:12;;;;;;;28.95;8.23;;;;;;;17.42;58.09;99722.69;5092493;28;20261;-40
2024/04/01 04:57:38;;;;;;;28.80;8.45;;;;;;;17.54;57.56;99722.56;5091930;28;20042;-39
2024/04/01 05:00:20;;;;;;;20.33;7.50;;;;;;;17.73;57.48;99728.47;5091336;28;20020;-38
2024/04/01 05:02:52;;;;;;;27.52;7.47;;;;;;;17.76;57.91;99720.69;5091724;28;20479;-41
2024/04/01 05:05:18;;;;;;;25.15;7.72;;;;;;;17.94;57.19;99733.03;5091838;28;20020;-40
2024/04/01 05:07:48;;;;;;;22.08;7.28;;;;;;;18.17;56.82;99733.81;5092423;28;20035;-39
2024/04/01 05:10:14;;;;;;;23.73;7.47;;;;;;;18.44;55.80;99733.81;5092623;28;20048;-40
2024/04/01 05:12:40;;;;;;;20.23;7.43;;;;;;;18.43;57.80;99731.34;5091854;28;20097;-42
2024/04/01 05:15:06;;;;;;;23.60;8.25;;;;;;;18.56;56.86;99729.06;5092126;28;20506;-37
2024/04/01 05:17:34;;;;;;;24.10;7.78;;;;;;;18.74;55.20;99729.75;5092087;28;20494;-38
2024/04/01 05:20:00;;;;;;;29.10;7.67;;;;;;;18.98;53.06;99729.41;5092019;28;20369;-39
2024/04/01 05:22:26;;;;;;;19.63;8.18;;;;;;;19.22;52.55;99730.66;5090829;28;20265;-39
2024/04/01 05:24:52;;;;;;;20.77;7.63;;;;;;;19.54;51.29;99743.22;5092094;28;20036;-40
2024/04/01 05:27:17;;;;;;;23.30;9.27;;;;;;;19.81;51.15;99740.41;5091927;28;20028;-41
2024/04/01 05:29:43;;;;;;;24.60;8.15;;;;;;;19.99;50.28;99751.78;5092042;28;20026;-40
2024/04/01 05:32:08;;;;;;;26.25;8.40;;;;;;;20.34;49.43;99750.28;5091966;28;20103;-39
2024/04/01 05:34:37;;;;;;;27.40;8.25;;;;;;;20.59;47.71;99761.09;5091955;28;20012;-39
2024/04/01 05:37:05;;;;;;;27.00;7.68;;;;;;;20.83;47.43;99752.50;5091691;28;20027;-37
2024/04/01 05:39:31;;;;;;;23.77;7.97;;;;;;;20.85;46.70;99753.84;5091614;28;20044;-39
2024/04/01 05:41:56;;;;;;;23.90;8.05;;;;;;;21.16;46.57;99748.41;5091631;28;20472;-38
2024/04/01 05:44:22;;;;;;;26.35;7.30;;;;;;;21.67;45.79;99750.19;5091452;28;20027;-39
2024/04/01 05:46:47;;;;;;;30.20;8.18;;;;;;;21.93;44.49;99753.56;5091547;28;20069;-37
2024/04/01 05:49:12;;;;;;;21.27;8.32;;;;;;;21.96;44.65;99758.44;5091625;28;20095;-42
2024/04/01 05:51:38;;;;;;;23.48;8.02;;;;;;;22.12;44.74;99759.16;5091388;28;20102;-38
2024/04/01 05:54:03;;;;;;;24.85;7.47;;;;;;;22.30;43.46;99762.38;5091881;28;20020;-35
2024/04/01 05:56:29;;;;;;;23.45;7.60;;;;;;;22.46;43.19;99766.56;5090138;28;20493;-41
2024/04/01 05:58:54;;;;;;;28.60;7.20;;;;;;;22.55;43.06;99755.94;5091236;28;20042;-41
2024/04/01 06:01:19;;;;;;;19.10;6.72;;;;;;;22.94;42.17;99765.94;5091621;28;20099;-39
2024/04/01 06:03:45;;;;;;;23.10;6.68;;;;;;;23.37;40.94;99755.22;5091403;28;20153;-37
2024/04/01 06:06:10;;;;;;;23.00;6.70;;;;;;;23.56;40.20;99745.22;5091079;28;20453;-39
2024/04/01 06:08:35;;;;;;;30.95;14.40;;;;;;;23.90;39.70;99754.38;5091202;28;20031;-38
2024/04/01 06:11:01;;;;;;;24.42;8.70;;;;;;;24.04;39.12;99751.72;5091257;28;20031;-39
2024/04/01 06:13:27;;;;;;;24.52;7.13;;;;;;;24.47;38.50;99755.19;5091133;28;20617;-39
2024/04/01 06:15:53;;;;;;;24.38;7.38;;;;;;;24.73;37.92;99749.34;5091436;28;20016;-41
2024/04/01 06:18:18;;;;;;;20.38;8.38;;;;;;;24.39;38.58;99753.16;5091759;28;20373;-38
2024/04/01 06:20:43;;;;;;;23.50;8.60;;;;;;;24.85;37.80;99740.75;5091254;28;20407;-40
2024/04/01 06:23:09;;;;;;;37.28;9.73;;;;;;;24.97;37.41;99750.03;5091123;28;20102;-38
2024/04/01 06:25:43;;;;;;;36.95;10.07;;;;;;;23.34;40.65;99747.66;5090991;28;20008;-38
2024/04/01 06:28:08;;;;;;;32.40;9.05;;;;;;;24.32;38.91;99748.06;5091001;28;20085;-38
2024/04/01 06:30:34;;;;;;;29.45;9.38;;;;;;;24.77;38.18;99740.31;5091034;28;20024;-40
2024/04/01 06:33:00;;;;;;;39.47;9.45;;;;;;;25.24;37.36;99745.75;5090853;28;20024;-39
2024/04/01 06:35:26;;;;;;;29.58;9.23;;;;;;;25.42;36.88;99741.34;5090371;28;20051;-36
2024/04/01 06:37:51;;;;;;;37.97;10.40;;;;;;;25.37;36.44;99746.88;5090875;28;20055;-40
2024/04/01 06:40:17;;;;;;;39.95;12.02;;;;;;;25.89;36.40;99749.38;5090717;28;20179;-39
2024/04/01 06:42:43;;;;;;;36.60;10.30;;;;;;;26.13;35.75;99741.78;5091001;28;20088;-40
2024/04/01 06:45:08;;;;;;;29.77;8.93;;;;;;;26.50;35.13;99750.75;5090802;28;20598;-37
2024/04/01 06:47:33;;;;;;;28.45;9.77;;;;;;;26.94;34.54;99756.53;5090957;28;20012;-40
2024/04/01 06:49:59;;;;;;;38.60;10.23;;;;;;;26.60;34.94;99759.81;5090666;28;20047;-35
2024/04/01 06:52:24;;;;;;;42.17;10.65;;;;;;;27.24;34.23;99760.34;5090900;28;20149;-38
2024/04/01 06:54:50;;;;;;;25.70;9.52;;;;;;;26.96;34.44;99759.75;5090503;28;20404;-39
2024/04/01 06:57:16;;;;;;;25.98;9.82;;;;;;;26.32;35.62;99759.91;5090738;28;20043;-39
2024/04/01 06:59:41;;;;;;;40.40;10.90;;;;;;;27.26;33.99;99760.91;5091191;28;20020;-39
2024/04/01 07:02:07;;;;;;;34.33;10.82;;;;;;;27.72;33.42;99775.22;5090510;28;20027;-37
2024/04/01 07:04:32;;;;;;;31.65;10.70;;;;;;;28.09;33.13;99770.31;5089986;28;20035;-39
2024/04/01 07:06:58;;;;;;;34.53;10.95;;;;;;;27.88;32.67;99759.16;5089121;28;20016;-36
2024/04/01 07:09:23;;;;;;;36.50;10.70;;;;;;;27.88;32.58;99757.25;5090664;28;20446;-36
2024/04/01 07:11:48;;;;;;;33.53;10.40;;;;;;;27.79;32.60;99750.13;5090403;28;20032;-38
2024/04/01 07:14:14;;;;;;;38.10;10.50;;;;;;;27.97;32.34;99742.78;5090271;28;20049;-40
2024/04/01 07:16:39;;;;;;;34.38;10.10;;;;;;;28.10;32.04;99743.78;5090582;28;20069;-41
2024/04/01 07:19:05;;;;;;;31.70;10.00;;;;;;;28.43;31.77;99741.38;5090383;28;20119;-38
2024/04/01 07:21:32;;;;;;;42.28;10.23;;;;;;;28.91;31.23;99745.03;5090103;28;20515;-41
2024/04/01 07:23:57;;;;;;;29.85;9.50;;;;;;;28.96;31.75;99753.03;5090537;28;20038;-38
2024/04/01 07:26:23;;;;;;;25.77;8.65;;;;;;;29.12;31.94;99745.13;5090730;28;20020;-39
2024/04/01 07:28:48;;;;;;;23.35;7.45;;;;;;;29.65;30.73;99735.53;5090578;28;20035;-40
2024/04/01 07:31:13;;;;;;;28.92;7.82;;;;;;;30.33;29.97;99732.69;5090317;28;20012;-37
2024/04/01 07:33:39;;;;;;;22.67;7.82;;;;;;;30.54;29.15;99729.09;5090324;28;20455;-39
2024/04/01 07:36:05;;;;;;;27.08;6.97;;;;;;;30.75;28.05;99732.59;5090014;28;20031;-38
2024/04/01 07:38:30;;;;;;;21.90;7.53;;;;;;;30.70;28.27;99730.06;5089433;28;20080;-40
2024/04/01 07:40:55;;;;;;;26.08;7.18;;;;;;;30.98;28.26;99734.97;5090557;28;20028;-40
2024/04/01 07:43:21;;;;;;;24.95;6.00;;;;;;;31.15;27.05;99733.97;5090259;28;20433;-42
2024/04/01 07:45:46;;;;;;;22.15;6.18;;;;;;;31.36;26.33;99731.91;5091552;28;20020;-39
2024/04/01 07:48:12;;;;;;;25.67;6.57;;;;;;;31.15;27.18;99726.53;5093839;28;20551;-41
2024/04/01 07:50:37;;;;;;;28.50;6.75;;;;;;;31.67;25.96;99738.00;5093881;28;20085;-41
2024/04/01 07:53:03;;;;;;;24.60;7.13;;;;;;;31.80;26.20;99727.78;5094183;28;20031;-40
2024/04/01 07:55:28;;;;;;;21.88;6.50;;;;;;;31.90;25.72;99732.81;5093764;28;20032;-39
2024/04/01 07:57:53;;;;;;;25.33;6.43;;;;;;;31.60;25.87;99735.81;5093723;28;20032;-39
2024/04/01 08:00:19;;;;;;;25.65;6.75;;;;;;;31.33;26.64;99729.84;5093922;28;20016;-39
2024/04/01 08:02:44;;;;;;;29.95;6.72;;;;;;;31.88;25.25;99724.91;5093622;28;20023;-39
2024/04/01 08:05:10;;;;;;;17.95;5.82;;;;;;;32.01;24.89;99713.88;5093301;28;20036;-40
2024/04/01 08:07:35;;;;;;;20.50;6.50;;;;;;;31.91;24.74;99709.63;5094003;28;20094;-38
2024/04/01 08:10:01;;;;;;;27.05;6.95;;;;;;;31.77;25.79;99705.31;5094026;28;20395;-40
2024/04/01 08:12:27;;;;;;;21.45;6.07;;;;;;;31.91;25.70;99699.44;5093261;28;20024;-41
2024/04/01 08:14:52;;;;;;;23.17;6.45;;;;;;;32.52;24.84;99709.44;5093783;28;20016;-37
2024/04/01 08:17:18;;;;;;;23.92;6.68;;;;;;;32.30;25.38;99705.28;5093179;28;20031;-41
2024/04/01 08:19:47;;;;;;;27.27;8.48;;;;;;;31.96;25.64;99704.69;5093114;28;20062;-40
2024/04/01 08:22:13;;;;;;;24.75;6.18;;;;;;;31.98;24.97;99703.56;5093322;28;20107;-39
2024/04/01 08:24:39;;;;;;;20.63;5.75;;;;;;;31.64;25.74;99703.72;5093124;28;20124;-38
2024/04/01 08:27:04;;;;;;;24.40;6.45;;;;;;;31.94;24.52;99707.00;5093382;28;20020;-39
2024/04/01 08:29:29;;;;;;;25.63;6.85;;;;;;;31.85;25.61;99700.81;5092990;28;20056;-40
2024/04/01 08:31:55;;;;;;;25.23;6.28;;;;;;;31.77;25.30;99701.75;5093324;28;20531;-41
2024/04/01 08:34:20;;;;;;;24.88;6.35;;;;;;;31.95;24.91;99713.31;5092810;28;20030;-39
2024/04/01 08:36:46;;;;;;;22.23;6.72;;;;;;;32.07;24.39;99707.00;5093069;28;20030;-40
2024/04/01 08:39:11;;;;;;;33.33;6.75;;;;;;;31.80;25.19;99698.34;5092644;28;20144;-40
2024/04/01 08:41:45;;;;;;;30.83;6.22;;;;;;;32.26;24.54;99703.59;5092823;28;20031;-40
2024/04/01 08:44:16;;;;;;;26.20;6.40;;;;;;;31.98;25.49;99709.06;5092677;28;20024;-38
2024/04/01 08:46:48;;;;;;;33.15;6.82;;;;;;;32.54;25.34;99703.59;5092743;28;20503;-43
2024/04/01 08:49:14;;;;;;;26.80;6.90;;;;;;;32.00;26.29;99701.25;5092926;28;20020;-40
2024/04/01 08:51:41;;;;;;;31.30;8.98;;;;;;;32.11;26.49;99696.88;5092764;28;20115;-44
2024/04/01 08:54:08;;;;;;;41.25;9.05;;;;;;;32.50;26.37;99700.75;5092607;28;20059;-38
2024/04/01 08:56:39;;;;;;;25.65;8.27;;;;;;;33.01;25.44;99689.06;5092383;28;20020;-38
2024/04/01 08:59:05;;;;;;;35.40;8.93;;;;;;;33.26;24.90;99691.66;5092509;28;20069;-41
2024/04/01 09:01:31;;;;;;;25.42;8.93;;;;;;;33.00;25.24;99683.94;5092384;28;20020;-40
2024/04/01 09:03:57;;;;;;;28.02;8.00;;;;;;;31.97;25.24;99675.25;5092687;28;20020;-39
2024/04/01 09:06:22;;;;;;;36.60;7.93;;;;;;;31.88;25.26;99672.63;5091086;28;20012;-39
2024/04/01 09:08:51;;;;;;;28.75;7.57;;;;;;;31.62;26.25;99670.28;5092543;28;20046;-40
2024/04/01 09:11:17;;;;;;;23.15;7.20;;;;;;;31.64;25.75;99653.44;5092259;28;20031;-41
2024/04/01 09:13:42;;;;;;;24.67;7.13;;;;;;;31.99;25.41;99661.13;5092787;28;20073;-42
2024/04/01 09:16:08;;;;;;;38.83;6.78;;;;;;;32.45;25.03;99634.91;5092657;28;20376;-39
2024/04/01 09:18:37;;;;;;;32.22;8.73;;;;;;;32.53;24.93;99655.16;5092102;28;20515;-44
2024/04/01 09:21:06;;;;;;;33.95;7.32;;;;;;;31.58;26.32;99657.56;5091963;28;20024;-39
2024/04/01 09:23:32;;;;;;;27.67;6.22;;;;;;;31.58;26.14;99644.63;5092164;28;20032;-40
2024/04/01 09:26:01;;;;;;;29.45;6.10;;;;;;;32.04;25.60;99660.91;5089855;28;20012;-39
2024/04/01 09:28:26;;;;;;;;;;;;;;;31.72;25.12;99653.31;5089578;28;20170;-40
2024/04/01 09:30:52;;;;;;;21.95;5.40;;;;;;;30.22;26.98;99649.16;5092398;28;20016;-36
2024/04/01 09:33:18;;;;;;;22.17;5.03;;;;;;;30.32;27.37;99642.47;5091990;28;20023;-38
2024/04/01 09:35:44;;;;;;;27.70;5.60;;;;;;;29.91;27.20;99641.34;5092035;28;20024;-38
2024/04/01 09:38:09;;;;;;;27.90;5.78;;;;;;;30.18;26.92;99637.25;5091976;28;20044;-41
2024/04/01 09:40:35;;;;;;;26.02;5.55;;;;;;;30.28;26.88;99642.31;5084799;28;20026;-40
2024/04/01 09:43:01;;;;;;;31.70;5.35;;;;;;;29.67;28.03;99626.34;5072275;28;20044;-39
2024/04/01 09:45:29;;;;;;;25.13;6.13;;;;;;;29.66;28.29;99623.94;5082315;28;20024;-40
2024/04/01 09:47:56;;;;;;;29.33;5.97;;;;;;;30.02;28.15;99615.94;5091675;28;20080;-40
2024/04/01 09:50:24;;;;;;;25.17;5.70;;;;;;;29.76;27.96;99613.41;5076378;28;20029;-40
2024/04/01 09:52:50;;;;;;;27.00;5.72;;;;;;;30.24;27.44;99613.16;5091623;28;20028;-39
2024/04/01 09:55:20;;;;;;;22.40;5.30;;;;;;;30.53;27.37;99603.97;5091532;28;20050;-40
2024/04/01 09:57:46;;;;;;;22.00;4.85;;;;;;;31.11;26.80;99606.63;5091578;28;20063;-37
2024/04/01 10:00:18;;;;;;;22.42;5.05;;;;;;;30.89;26.75;99616.13;5091716;28;20465;-40
2024/04/01 10:02:56;;;;;;;15.90;4.65;;;;;;;30.94;26.63;99608.50;5091003;28;20020;-39
2024/04/01 10:05:27;;;;;;;22.88;4.90;;;;;;;29.90;28.15;99613.13;5091310;28;20016;-38
2024/04/01 10:08:25;;;;;;;28.20;5.40;;;;;;;29.85;27.84;99610.56;5077127;28;20029;-40
2024/04/01 10:11:07;;;;;;;21.38;5.28;;;;;;;30.42;27.60;99609.09;5091858;28;20488;-37
2024/04/01 10:13:48;;;;;;;27.02;5.30;;;;;;;30.86;27.08;99598.38;5080516;28;20480;-40
2024/04/01 10:16:38;;;;;;;22.33;4.88;;;;;;;29.96;27.90;99589.03;5091262;28;20020;-43
2024/04/01 10:19:15;;;;;;;21.45;5.10;;;;;;;31.08;26.25;99585.38;5091338;28;20022;-41
2024/04/01 10:22:18;;;;;;;20.17;4.90;;;;;;;30.68;26.95;99575.03;5091650;28;20480;-38
2024/04/01 10:25:11;;;;;;;26.50;5.45;;;;;;;31.11;27.04;99568.16;5091286;28;20044;-43
2024/04/01 10:27:45;;;;;;;31.38;5.45;;;;;;;30.36;27.20;99572.03;5091684;28;20032;-38
2024/04/01 10:30:29;;;;;;;28.42;5.30;;;;;;;30.74;26.65;99562.69;5091614;28;20448;-38
2024/04/01 10:33:12;;;;;;;28.08;5.13;;;;;;;30.56;26.61;99567.59;5091508;28;20028;-40
2024/04/01 10:35:56;;;;;;;31.13;5.18;;;;;;;30.70;26.40;99559.03;5091367;28;20024;-40
2024/04/01 10:38:52;;;;;;;21.20;4.90;;;;;;;29.76;27.53;99557.78;5091406;28;20094;-38
2024/04/01 10:41:44;;;;;;;25.33;5.45;;;;;;;29.93;27.20;99549.38;5089259;28;20048;-38
2024/04/01 10:44:47;;;;;;;20.50;4.70;;;;;;;30.14;27.78;99548.50;5079876;28;20045;-38
2024/04/01 10:47:15;;;;;;;27.45;4.47;;;;;;;29.62;28.22;99536.91;5080395;28;20027;-38
2024/04/01 10:49:46;;;;;;;24.70;5.43;;;;;;;29.79;27.99;99526.94;5091370;28;20170;-37
2024/04/01 10:52:30;;;;;;;30.42;5.07;;;;;;;30.59;26.72;99517.47;5071247;28;20059;-42
2024/04/01 10:55:01;;;;;;;19.90;5.32;;;;;;;30.36;26.00;99519.88;5071388;28;20093;-40
2024/04/01 10:57:47;;;;;;;30.67;5.32;;;;;;;30.25;26.72;99519.47;5071220;28;20045;-42
2024/04/01 11:00:27;;;;;;;27.42;5.20;;;;;;;30.36;27.99;99509.69;5020401;28;20071;-40
2024/04/01 11:03:14;;;;;;;24.48;5.45;;;;;;;30.40;27.26;99507.88;5071344;28;20021;-41
2024/04/01 11:05:51;;;;;;;21.27;5.05;;;;;;;30.69;27.01;99508.81;5076011;28;20547;-39
2024/04/01 11:08:47;;;;;;;24.83;5.93;;;;;;;30.76;26.22;99505.47;5091252;28;20114;-43
2024/04/01 11:11:20;;;;;;;27.73;4.72;;;;;;;30.13;26.64;99509.28;5090957;28;20020;-40
2024/04/01 11:13:48;;;;;;;25.02;4.75;;;;;;;29.63;27.30;99502.06;5091318;28;20111;-40
2024/04/01 11:16:16;;;;;;;28.52;5.07;;;;;;;29.73;27.09;99498.13;5091492;28;20016;-40
2024/04/01 11:18:48;;;;;;;28.50;5.07;;;;;;;29.90;26.63;99497.94;5091025;28;20046;-42
2024/04/01 11:21:37;;;;;;;28.25;4.85;;;;;;;30.34;26.00;99491.97;5080967;28;20107;-40
2024/04/01 11:24:27;;;;;;;27.23;4.70;;;;;;;30.25;26.46;99485.75;5084715;28;20032;-39
2024/04/01 11:27:34;;;;;;;25.25;4.47;;;;;;;30.19;26.38;99480.50;5082058;28;20059;-42
2024/04/01 11:30:08;;;;;;;27.77;4.70;;;;;;;29.86;27.13;99491.53;5036578;28;20040;-36